Skip Navigation Links Skip Navigation Links

Current Weather

Auckland, Sydney, Australia

For information only: do not use for flight planning or navigation.
Latest weather
Observation time Wednesday, October 27, 2021 5:00 PM AEDT
Local time Wednesday, October 27, 2021 5:21 PM AEDT
Flight conditions Visual Meteorological Conditions
Winds
Wind direction Northeast (50°)
Wind speed 16 mph
Visibility 6.2 mi.
Sky condition
Ceiling unlimited
Sky clear
Temperature 73°F
Dewpoint 59°F
Altimeter 29.91 in.Hg
Derived measurements
Relative humidity 61%
Density altitude 1184 ft.
Remarks
Ceiling and visibility OK.
METAR YSSY 270600Z 05014KT CAVOK 23/15 Q1013

Settings

Location code

InnerDrive.Weather 4.0.6770.0 Release CLR 4.0.30319.42000
Copyright ©2018 Inner Drive Technology. All rights reserved. Portions Copyright ©1986-2018 David Braverman.

Find weather

Site navigation


Skip Navigation Links

Place info

Page info

PayPal - The safer, easier way to pay online!

Return home.

Copyright ©2021 Inner Drive Technology. Purveyors of fine, hand-crafted computer software. Page printed 2021-10-27T06:21:01 UTC.